Time;durP1;ratioP1;P1;durP2;ratioP2;P2;SDS_P1;SDS_P2;PMS_P1;PMS_P2;Temp;Humidity;BMP_temperature;BMP_pressure;BME280_temperature;BME280_humidity;BME280_pressure;Samples;Min_cycle;Max_cycle;Signal;HPM_P1;HPM_P2
2023/05/05 00:02:03;;;;;;;18.67;11.57;;;;;;;11.52;100.00;94989.25;5073515;28;20291;-77
2023/05/05 00:04:30;;;;;;;18.83;11.13;;;;;;;11.52;100.00;94989.25;5080006;28;20647;-76
2023/05/05 00:06:57;;;;;;;18.37;11.43;;;;;;;11.50;100.00;94987.88;5089699;28;20633;-77
2023/05/05 00:09:25;;;;;;;17.03;11.63;;;;;;;11.44;100.00;94981.72;5070636;28;20276;-76
2023/05/05 00:11:52;;;;;;;21.63;12.20;;;;;;;11.38;100.00;94985.97;5080449;28;20268;-76
2023/05/05 00:14:18;;;;;;;15.73;11.20;;;;;;;11.37;100.00;94991.38;5088031;28;20227;-77
2023/05/05 00:16:46;;;;;;;19.83;12.33;;;;;;;11.35;100.00;94983.00;5072096;28;20261;-77
2023/05/05 00:19:12;;;;;;;23.63;12.20;;;;;;;11.34;100.00;94979.59;5078331;28;20571;-76
2023/05/05 00:21:39;;;;;;;25.27;13.20;;;;;;;11.32;100.00;94989.44;5089507;28;20192;-79
2023/05/05 00:24:06;;;;;;;22.13;12.23;;;;;;;11.34;100.00;94986.63;5073773;28;20201;-78
2023/05/05 00:26:34;;;;;;;24.67;12.87;;;;;;;11.25;100.00;94980.09;5079773;28;20217;-78
2023/05/05 00:29:01;;;;;;;24.40;13.70;;;;;;;11.09;100.00;94967.63;5087752;28;20192;-78
2023/05/05 00:31:28;;;;;;;26.67;13.27;;;;;;;11.18;100.00;94980.16;5061759;28;20201;-77
2023/05/05 00:33:55;;;;;;;24.57;13.17;;;;;;;11.15;100.00;94982.38;5081246;28;20205;-78
2023/05/05 00:36:22;;;;;;;24.63;14.00;;;;;;;11.07;100.00;94980.03;5090063;28;20662;-77
2023/05/05 00:38:48;;;;;;;21.27;12.43;;;;;;;11.06;100.00;94984.44;5080807;28;20666;-77
2023/05/05 00:41:15;;;;;;;17.13;10.53;;;;;;;10.99;100.00;94983.72;5078423;28;20694;-78
2023/05/05 00:43:43;;;;;;;17.83;10.60;;;;;;;10.95;100.00;94984.34;5088201;28;20192;-77
2023/05/05 00:46:19;;;;;;;22.10;11.50;;;;;;;10.90;100.00;94986.78;5079830;28;20220;-77
2023/05/05 00:48:46;;;;;;;21.87;12.33;;;;;;;10.79;100.00;94985.66;5073189;28;20204;-78
2023/05/05 00:51:15;;;;;;;24.73;12.70;;;;;;;10.83;100.00;94989.41;5090169;28;20223;-77
2023/05/05 00:53:43;;;;;;;20.77;11.73;;;;;;;10.85;100.00;94994.41;5072123;28;20203;-78
2023/05/05 00:56:11;;;;;;;22.63;12.23;;;;;;;10.82;100.00;94988.63;5080889;28;20246;-78
2023/05/05 00:58:39;;;;;;;22.67;12.47;;;;;;;10.68;100.00;94981.13;5088397;28;20207;-78
2023/05/05 01:01:08;;;;;;;16.40;10.77;;;;;;;10.41;100.00;94977.09;5074346;28;20197;-77
2023/05/05 01:03:37;;;;;;;24.30;12.23;;;;;;;10.16;100.00;94980.41;5080917;28;20199;-77
2023/05/05 01:06:14;;;;;;;22.80;12.17;;;;;;;9.98;100.00;94976.88;5070917;28;20614;-78
2023/05/05 01:08:52;;;;;;;19.03;11.60;;;;;;;10.00;100.00;94978.25;5083185;28;20284;-78
2023/05/05 01:11:26;;;;;;;19.27;11.97;;;;;;;10.06;100.00;94976.63;5069728;28;20212;-76
2023/05/05 01:14:01;;;;;;;20.37;12.10;;;;;;;10.14;100.00;94971.25;5083326;28;20288;-76
2023/05/05 01:16:32;;;;;;;18.47;11.57;;;;;;;10.17;100.00;94976.81;5091452;28;20188;-77
2023/05/05 01:19:06;;;;;;;19.87;10.83;;;;;;;10.22;100.00;94974.38;5081198;28;20201;-77
2023/05/05 01:21:38;;;;;;;15.13;9.43;;;;;;;10.29;100.00;94982.16;5082781;28;20200;-76
2023/05/05 01:24:30;;;;;;;14.70;8.97;;;;;;;10.30;100.00;94980.34;5088577;28;20663;-76
2023/05/05 01:27:34;;;;;;;13.90;9.00;;;;;;;10.33;100.00;94975.56;5087716;28;20702;-76
2023/05/05 01:30:08;;;;;;;13.00;8.50;;;;;;;10.35;100.00;94978.72;5082121;28;20279;-75
2023/05/05 01:32:42;;;;;;;17.97;8.87;;;;;;;10.34;100.00;94977.13;5080520;28;20281;-76
2023/05/05 01:35:13;;;;;;;12.43;8.57;;;;;;;10.31;100.00;94961.16;5089457;28;20192;-75
2023/05/05 01:37:52;;;;;;;14.07;8.13;;;;;;;10.36;100.00;94972.50;5073801;28;20249;-75
2023/05/05 01:40:22;;;;;;;13.50;7.90;;;;;;;10.43;100.00;94975.88;5082562;28;20198;-75
2023/05/05 01:42:51;;;;;;;12.77;8.03;;;;;;;10.42;100.00;94966.47;5087963;28;20224;-75
2023/05/05 01:45:22;;;;;;;11.97;8.23;;;;;;;10.41;100.00;94964.09;5086098;28;20250;-75
2023/05/05 01:47:52;;;;;;;12.23;7.57;;;;;;;10.38;100.00;94967.94;5078557;28;20619;-76
2023/05/05 01:50:20;;;;;;;12.17;7.70;;;;;;;10.39;100.00;94964.31;5085639;28;20267;-76
2023/05/05 01:52:47;;;;;;;10.03;7.20;;;;;;;10.25;100.00;94958.38;5089906;28;20663;-76
2023/05/05 01:55:17;;;;;;;10.53;7.40;;;;;;;10.23;100.00;94947.41;5075211;28;20695;-77
2023/05/05 01:57:46;;;;;;;12.27;7.87;;;;;;;10.23;100.00;94952.63;5077849;28;20699;-76
2023/05/05 02:00:16;;;;;;;15.03;9.27;;;;;;;10.24;100.00;94956.00;5075202;28;20247;-77
2023/05/05 02:02:46;;;;;;;13.27;9.23;;;;;;;10.17;100.00;94945.66;5073844;28;20188;-78
2023/05/05 02:05:15;;;;;;;13.10;9.23;;;;;;;10.20;100.00;94950.44;5083713;28;20608;-78
2023/05/05 02:07:44;;;;;;;15.50;9.73;;;;;;;10.20;100.00;94957.44;5092365;28;20209;-76
2023/05/05 02:10:13;;;;;;;13.07;9.23;;;;;;;10.24;100.00;94953.41;5074675;28;20252;-76
2023/05/05 02:12:42;;;;;;;12.10;7.93;;;;;;;10.23;100.00;94954.41;5082978;28;20220;-77
2023/05/05 02:15:11;;;;;;;12.07;7.43;;;;;;;10.17;100.00;94961.25;5087590;28;20251;-76
2023/05/05 02:17:41;;;;;;;11.50;8.33;;;;;;;9.98;100.00;94951.72;5082266;28;20189;-77
2023/05/05 02:20:10;;;;;;;15.07;9.83;;;;;;;9.93;100.00;94943.72;5072204;28;20194;-77
2023/05/05 02:22:38;;;;;;;14.47;9.27;;;;;;;9.96;100.00;94945.13;5074321;28;20704;-77
2023/05/05 02:25:06;;;;;;;15.10;8.57;;;;;;;9.92;100.00;94947.34;5082657;28;20197;-77
2023/05/05 02:27:36;;;;;;;10.37;7.63;;;;;;;9.96;100.00;94951.09;5079861;28;20224;-77
2023/05/05 02:30:07;;;;;;;10.47;7.80;;;;;;;10.00;100.00;94944.50;5084035;28;20678;-77
2023/05/05 02:32:37;;;;;;;13.20;8.77;;;;;;;10.13;100.00;94949.66;5073158;28;20203;-77
2023/05/05 02:35:10;;;;;;;11.80;8.30;;;;;;;10.21;100.00;94944.25;5079963;28;20204;-77
2023/05/05 02:37:40;;;;;;;14.73;9.10;;;;;;;10.25;100.00;94942.81;5091527;28;20269;-77
2023/05/05 02:40:08;;;;;;;15.23;8.57;;;;;;;10.27;100.00;94945.97;5073495;28;20207;-77
2023/05/05 02:42:38;;;;;;;13.63;8.90;;;;;;;10.30;100.00;94944.00;5074326;28;20197;-76
2023/05/05 02:45:10;;;;;;;16.07;8.87;;;;;;;10.29;100.00;94945.78;5074739;28;20341;-75
2023/05/05 02:47:38;;;;;;;16.77;9.33;;;;;;;10.34;100.00;94953.75;5087728;28;20217;-75
2023/05/05 02:50:06;;;;;;;15.57;10.40;;;;;;;10.24;100.00;94951.59;5085178;28;20550;-75
2023/05/05 02:52:34;;;;;;;13.27;9.13;;;;;;;10.02;100.00;94947.69;5082576;28;20191;-76
2023/05/05 02:55:04;;;;;;;14.03;9.30;;;;;;;9.70;100.00;94944.22;5089387;28;20204;-77
2023/05/05 02:57:37;;;;;;;16.27;9.73;;;;;;;9.42;100.00;94937.72;5076813;28;20193;-78
2023/05/05 03:00:10;;;;;;;16.33;12.07;;;;;;;9.51;100.00;94946.88;5074656;28;20198;-77
2023/05/05 03:02:44;;;;;;;15.50;10.53;;;;;;;9.62;100.00;94947.06;5086952;28;20203;-76
2023/05/05 03:05:17;;;;;;;13.67;9.93;;;;;;;9.77;100.00;94944.22;5070367;28;20193;-76
2023/05/05 03:07:53;;;;;;;14.33;10.27;;;;;;;9.85;100.00;94938.78;5082856;28;20225;-75
2023/05/05 03:10:26;;;;;;;13.87;9.53;;;;;;;10.00;100.00;94954.09;5088168;28;20185;-75
2023/05/05 03:12:55;;;;;;;12.27;8.70;;;;;;;10.08;100.00;94949.47;5081951;28;20197;-75
2023/05/05 03:15:25;;;;;;;11.37;8.07;;;;;;;10.17;100.00;94947.44;5077140;28;20665;-76
2023/05/05 03:17:53;;;;;;;9.50;7.27;;;;;;;10.22;100.00;94940.63;5080312;28;20189;-75
2023/05/05 03:20:22;;;;;;;10.43;7.10;;;;;;;10.29;100.00;94945.00;5070363;28;20200;-76
2023/05/05 03:22:49;;;;;;;12.80;7.67;;;;;;;10.35;100.00;94954.56;5083390;28;20197;-75
2023/05/05 03:25:16;;;;;;;13.67;7.17;;;;;;;10.37;100.00;94952.53;5090155;28;20192;-75
2023/05/05 03:27:44;;;;;;;19.00;7.87;;;;;;;10.36;100.00;94945.75;5071588;28;20219;-76
2023/05/05 03:30:12;;;;;;;10.27;7.23;;;;;;;10.43;100.00;94941.31;5074548;28;20202;-76
2023/05/05 03:32:39;;;;;;;8.90;6.20;;;;;;;10.31;100.00;94919.59;5087266;28;20192;-77
2023/05/05 03:35:07;;;;;;;9.33;6.60;;;;;;;10.47;100.00;94948.50;5085223;28;20208;-77
2023/05/05 03:37:34;;;;;;;9.10;6.47;;;;;;;10.55;100.00;94947.44;5067146;28;20617;-77
2023/05/05 03:40:00;;;;;;;9.40;6.67;;;;;;;10.60;100.00;94963.19;5088803;28;20560;-77
2023/05/05 03:42:27;;;;;;;10.30;7.10;;;;;;;10.55;100.00;94950.03;5084329;28;20740;-76
2023/05/05 03:44:56;;;;;;;11.83;8.33;;;;;;;10.60;100.00;94947.59;5081141;28;20204;-77
2023/05/05 03:47:23;;;;;;;14.70;9.10;;;;;;;10.63;100.00;94939.38;5088099;28;20220;-75
2023/05/05 03:49:50;;;;;;;12.50;8.77;;;;;;;10.67;100.00;94943.94;5075723;28;20248;-75
2023/05/05 03:52:17;;;;;;;15.53;11.17;;;;;;;10.65;100.00;94940.75;5076735;28;20197;-75
2023/05/05 03:54:44;;;;;;;20.53;12.70;;;;;;;10.69;100.00;94952.31;5086833;28;20200;-74
2023/05/05 03:57:11;;;;;;;18.57;13.57;;;;;;;10.72;100.00;94956.31;5086092;28;20200;-76
2023/05/05 03:59:38;;;;;;;21.03;14.93;;;;;;;10.62;100.00;94956.00;5073776;28;20194;-76
2023/05/05 04:02:06;;;;;;;20.10;15.10;;;;;;;10.61;100.00;94957.78;5087506;28;20639;-76
2023/05/05 04:04:33;;;;;;;23.37;16.40;;;;;;;10.63;100.00;94957.56;5075567;28;20200;-76
2023/05/05 04:07:00;;;;;;;22.87;14.23;;;;;;;10.67;100.00;94958.75;5082527;28;20243;-75
2023/05/05 04:09:26;;;;;;;24.43;13.20;;;;;;;10.60;100.00;94945.00;5088009;28;20191;-76
2023/05/05 04:11:53;;;;;;;18.87;11.13;;;;;;;10.77;100.00;94959.06;5069127;28;20205;-76
2023/05/05 04:14:21;;;;;;;17.87;10.47;;;;;;;10.89;100.00;94959.97;5064957;28;20336;-76
2023/05/05 04:16:47;;;;;;;15.23;8.73;;;;;;;10.88;100.00;94971.38;5068169;28;20201;-75
2023/05/05 04:19:16;;;;;;;13.47;8.87;;;;;;;10.85;100.00;94969.19;5074635;28;20579;-76
2023/05/05 04:21:43;;;;;;;14.63;8.30;;;;;;;10.90;100.00;94978.97;5081343;28;20196;-76
2023/05/05 04:24:10;;;;;;;11.43;7.80;;;;;;;10.91;100.00;94981.34;5086104;28;20207;-76
2023/05/05 04:26:36;;;;;;;12.83;8.03;;;;;;;10.75;100.00;94954.09;5083545;28;20253;-76
2023/05/05 04:29:03;;;;;;;10.93;8.50;;;;;;;10.92;100.00;94980.34;5074026;28;20255;-77
2023/05/05 04:31:30;;;;;;;11.80;8.33;;;;;;;10.94;100.00;94980.94;5067925;28;20197;-75
2023/05/05 04:33:58;;;;;;;14.03;8.77;;;;;;;10.95;100.00;94977.34;5062219;28;20212;-75
2023/05/05 04:36:26;;;;;;;12.70;8.63;;;;;;;11.05;100.00;94985.47;5080459;28;20230;-76
2023/05/05 04:38:54;;;;;;;10.53;8.17;;;;;;;10.78;100.00;94979.66;5078806;28;20197;-76
2023/05/05 04:41:21;;;;;;;13.07;9.00;;;;;;;10.36;100.00;94987.31;5087348;28;20200;-76
2023/05/05 04:43:47;;;;;;;15.13;10.00;;;;;;;10.06;100.00;94981.84;5065568;28;20236;-76
2023/05/05 04:46:14;;;;;;;12.77;8.77;;;;;;;10.22;100.00;94976.97;5087134;28;20205;-76
2023/05/05 04:48:41;;;;;;;15.27;9.23;;;;;;;10.37;100.00;94974.13;5088022;28;20221;-76
2023/05/05 04:51:08;;;;;;;15.43;9.37;;;;;;;10.47;100.00;94973.66;5084611;28;20716;-76
2023/05/05 04:53:36;;;;;;;15.07;9.13;;;;;;;10.61;100.00;94977.78;5087759;28;20201;-75
2023/05/05 04:56:03;;;;;;;12.57;8.20;;;;;;;10.79;100.00;94985.66;5090751;28;20667;-75
2023/05/05 04:58:30;;;;;;;11.60;8.27;;;;;;;10.90;100.00;94984.97;5082936;28;20204;-77
2023/05/05 05:00:57;;;;;;;13.00;8.33;;;;;;;10.95;100.00;94984.34;5086981;28;20202;-75
2023/05/05 05:03:24;;;;;;;17.13;8.33;;;;;;;10.94;100.00;94983.53;5090593;28;20199;-76
2023/05/05 05:05:51;;;;;;;23.37;11.17;;;;;;;11.00;100.00;94990.50;5084000;28;20193;-76
2023/05/05 05:08:18;;;;;;;19.80;10.17;;;;;;;11.06;100.00;94989.66;5086898;28;20602;-75
2023/05/05 05:10:46;;;;;;;13.80;9.30;;;;;;;11.06;100.00;94992.25;5085870;28;20197;-76
2023/05/05 05:13:13;;;;;;;20.17;10.30;;;;;;;11.17;100.00;94993.34;5080581;28;20200;-75
2023/05/05 05:15:40;;;;;;;16.77;8.90;;;;;;;11.23;100.00;94988.09;5076145;28;20771;-75
2023/05/05 05:18:07;;;;;;;13.90;9.20;;;;;;;11.32;100.00;94989.44;5080574;28;20647;-75
2023/05/05 05:20:34;;;;;;;18.50;12.37;;;;;;;11.45;100.00;95008.53;5081363;28;20193;-77
2023/05/05 05:23:01;;;;;;;20.60;13.67;;;;;;;11.45;100.00;95005.94;5072423;28;20652;-75
2023/05/05 05:25:28;;;;;;;19.23;14.00;;;;;;;11.54;100.00;95009.84;5087149;28;20228;-75
2023/05/05 05:27:56;;;;;;;16.07;11.10;;;;;;;11.63;100.00;95005.97;5075990;28;20220;-76
2023/05/05 05:30:23;;;;;;;14.03;9.53;;;;;;;11.63;100.00;95005.97;5084812;28;20315;-75
2023/05/05 05:32:50;;;;;;;14.60;10.03;;;;;;;11.72;100.00;95009.88;5088507;28;20196;-75
2023/05/05 05:35:17;;;;;;;13.70;10.33;;;;;;;11.83;100.00;95007.38;5080879;28;20678;-76
2023/05/05 05:37:46;;;;;;;19.23;11.27;;;;;;;11.76;100.00;95014.47;5080510;28;20198;-76
2023/05/05 05:40:13;;;;;;;17.30;10.80;;;;;;;11.71;100.00;95016.94;5081849;28;20200;-76
2023/05/05 05:42:40;;;;;;;20.77;11.57;;;;;;;11.61;100.00;95011.38;5056619;28;20279;-76
2023/05/05 05:45:10;;;;;;;22.37;11.23;;;;;;;11.51;100.00;95015.50;5069622;28;20287;-76
2023/05/05 05:47:36;;;;;;;17.77;10.10;;;;;;;11.52;100.00;95006.66;5072839;28;20229;-76
2023/05/05 05:50:05;;;;;;;13.53;9.50;;;;;;;11.57;100.00;95006.84;5078768;28;20581;-75
2023/05/05 05:52:32;;;;;;;12.63;9.27;;;;;;;11.62;100.00;95009.56;5081624;28;20284;-75
2023/05/05 05:54:59;;;;;;;12.80;9.43;;;;;;;11.56;100.00;94997.41;5088632;28;20196;-76
2023/05/05 05:57:26;;;;;;;15.13;9.00;;;;;;;11.62;100.00;95015.59;5079041;28;20189;-75
2023/05/05 05:59:53;;;;;;;12.10;9.10;;;;;;;11.65;100.00;95009.16;5072170;28;20213;-75
2023/05/05 06:02:22;;;;;;;16.57;9.77;;;;;;;11.70;100.00;95009.31;5088188;28;20196;-75
2023/05/05 06:04:48;;;;;;;17.97;8.93;;;;;;;11.62;100.00;95004.38;5081562;28;20200;-76
2023/05/05 06:07:15;;;;;;;11.73;8.67;;;;;;;11.72;100.00;95015.91;5082244;28;20277;-77
2023/05/05 06:09:42;;;;;;;13.13;7.77;;;;;;;11.79;100.00;95013.25;5085346;28;20189;-77
2023/05/05 06:12:09;;;;;;;12.07;7.97;;;;;;;11.84;100.00;95000.34;5071104;28;20204;-76
2023/05/05 06:14:36;;;;;;;9.00;6.97;;;;;;;12.04;100.00;95016.56;5080339;28;20687;-75
2023/05/05 06:17:03;;;;;;;11.30;7.00;;;;;;;12.07;100.00;95007.50;5089999;28;20562;-76
2023/05/05 06:19:31;;;;;;;11.93;7.20;;;;;;;12.23;99.97;95025.19;5074495;28;20189;-77
2023/05/05 06:21:58;;;;;;;12.07;7.93;;;;;;;12.32;99.85;95018.66;5081866;28;20202;-76
2023/05/05 06:24:32;;;;;;;19.77;8.33;;;;;;;12.41;99.93;95020.72;5089080;28;20204;-77
2023/05/05 06:26:59;;;;;;;15.07;8.57;;;;;;;12.48;99.10;95023.25;5083589;28;20204;-76
2023/05/05 06:29:26;;;;;;;11.33;8.60;;;;;;;12.56;99.24;95024.75;5065884;28;20225;-76
2023/05/05 06:31:53;;;;;;;11.47;7.87;;;;;;;12.60;97.08;95033.75;5083087;28;20193;-76
2023/05/05 06:34:20;;;;;;;13.37;7.17;;;;;;;12.70;96.46;95024.34;5077393;28;20668;-76
2023/05/05 06:36:51;;;;;;;8.53;6.80;;;;;;;12.72;96.71;95026.75;5082560;28;20251;-76
2023/05/05 06:39:18;;;;;;;10.07;6.77;;;;;;;12.78;96.04;95026.69;5089963;28;20173;-77
2023/05/05 06:41:45;;;;;;;11.03;7.43;;;;;;;12.76;96.23;95010.44;5082982;28;20204;-76
2023/05/05 06:44:12;;;;;;;10.77;6.67;;;;;;;12.94;96.01;95031.25;5061772;28;20197;-76
2023/05/05 06:46:39;;;;;;;8.13;5.87;;;;;;;12.98;94.42;95019.38;5083032;28;20254;-76
2023/05/05 06:49:06;;;;;;;9.07;5.40;;;;;;;12.97;92.92;95019.56;5072377;28;20699;-76
2023/05/05 06:51:33;;;;;;;8.70;7.10;;;;;;;12.93;92.67;95023.63;5079010;28;20205;-76
2023/05/05 06:54:01;;;;;;;8.80;5.63;;;;;;;12.94;91.34;95020.00;5081791;28;20196;-74
2023/05/05 06:56:28;;;;;;;6.10;5.00;;;;;;;13.01;92.02;95012.91;5082434;28;20200;-75
2023/05/05 06:58:55;;;;;;;9.17;5.47;;;;;;;13.10;91.89;95016.00;5076011;28;20901;-76
2023/05/05 07:01:22;;;;;;;7.97;5.93;;;;;;;13.21;91.79;95020.44;5091148;28;20784;-76
2023/05/05 07:03:49;;;;;;;9.27;6.07;;;;;;;13.32;92.74;95025.69;5076103;28;20229;-77
2023/05/05 07:06:15;;;;;;;8.53;5.87;;;;;;;13.36;92.03;95018.22;5081653;28;20193;-76
2023/05/05 07:08:42;;;;;;;9.07;5.40;;;;;;;13.44;91.75;95013.44;5084857;28;20216;-77
2023/05/05 07:11:10;;;;;;;9.30;6.50;;;;;;;13.50;91.19;95017.78;5077441;28;20578;-77
2023/05/05 07:13:37;;;;;;;10.40;5.70;;;;;;;13.56;90.73;95013.44;5076041;28;20205;-76
2023/05/05 07:16:05;;;;;;;13.23;5.80;;;;;;;13.54;90.20;95005.81;5090713;28;20228;-75
2023/05/05 07:18:32;;;;;;;10.53;5.33;;;;;;;13.46;90.92;95000.94;5080063;28;20285;-77
2023/05/05 07:20:58;;;;;;;10.67;4.53;;;;;;;13.41;90.51;95003.44;5082863;28;20268;-76
2023/05/05 07:23:25;;;;;;;9.30;3.93;;;;;;;13.49;90.47;95010.94;5085693;28;20201;-76
2023/05/05 07:25:52;;;;;;;5.97;4.50;;;;;;;13.59;90.31;95011.16;5081415;28;20708;-73
2023/05/05 07:28:21;;;;;;;6.73;4.40;;;;;;;13.60;90.71;95002.31;5080584;28;20212;-73
2023/05/05 07:30:48;;;;;;;5.10;4.07;;;;;;;13.70;90.12;95000.94;5090760;28;20196;-73
2023/05/05 07:33:14;;;;;;;4.73;3.80;;;;;;;13.64;89.24;95008.69;5079315;28;20197;-73
2023/05/05 07:35:41;;;;;;;5.33;4.20;;;;;;;13.71;90.17;95000.72;5079723;28;20200;-74
2023/05/05 07:38:08;;;;;;;6.67;4.00;;;;;;;13.73;89.30;95003.91;5090561;28;20196;-74
2023/05/05 07:40:35;;;;;;;7.07;3.97;;;;;;;13.80;89.85;95020.25;5070811;28;20203;-74
2023/05/05 07:43:01;;;;;;;6.67;3.97;;;;;;;13.96;89.54;95013.53;5077328;28;20201;-73
2023/05/05 07:45:30;;;;;;;7.20;4.63;;;;;;;14.07;88.84;95010.91;5089036;28;20201;-73
2023/05/05 07:47:57;;;;;;;6.27;4.73;;;;;;;14.13;88.49;95006.56;5080126;28;20235;-74
2023/05/05 07:50:24;;;;;;;11.67;5.00;;;;;;;14.21;86.52;95014.84;5077305;28;20189;-73
2023/05/05 07:52:50;;;;;;;5.90;4.30;;;;;;;14.12;87.29;95011.00;5088677;28;20180;-74
2023/05/05 07:55:17;;;;;;;8.40;4.30;;;;;;;14.17;87.19;95010.28;5081131;28;20196;-73
2023/05/05 07:57:44;;;;;;;7.43;4.53;;;;;;;14.21;88.15;95011.44;5077430;28;20709;-73
2023/05/05 08:00:13;;;;;;;15.80;4.53;;;;;;;14.21;88.58;95014.03;5089724;28;20386;-74
2023/05/05 08:02:42;;;;;;;7.17;4.37;;;;;;;14.24;88.13;95016.19;5080572;28;20216;-73
2023/05/05 08:05:09;;;;;;;10.90;4.20;;;;;;;14.28;88.86;95021.78;5080937;28;20281;-73
2023/05/05 08:07:39;;;;;;;5.57;3.67;;;;;;;14.29;86.50;95018.91;5087243;28;20196;-74
2023/05/05 08:10:08;;;;;;;5.53;3.70;;;;;;;14.20;86.72;95005.41;5079209;28;20219;-74
2023/05/05 08:12:35;;;;;;;7.10;4.03;;;;;;;14.33;87.34;95014.84;5066564;28;20608;-74
2023/05/05 08:15:02;;;;;;;7.10;3.73;;;;;;;14.37;87.68;95015.19;5058709;28;20304;-74
2023/05/05 08:17:29;;;;;;;7.30;4.23;;;;;;;14.37;86.50;95017.81;5067721;28;20678;-73
2023/05/05 08:19:57;;;;;;;5.60;4.23;;;;;;;14.40;85.47;95007.66;5083574;28;20568;-74
2023/05/05 08:22:24;;;;;;;6.27;3.83;;;;;;;14.37;85.55;94999.50;5091483;28;20189;-74
2023/05/05 08:24:54;;;;;;;11.67;4.10;;;;;;;14.37;86.27;94996.88;5083891;28;20192;-76
2023/05/05 08:27:21;;;;;;;9.67;3.43;;;;;;;14.41;85.79;94990.94;5086441;28;20193;-76
2023/05/05 08:29:48;;;;;;;9.23;3.63;;;;;;;14.47;85.61;94995.25;5089145;28;21745;-77
2023/05/05 08:32:40;;;;;;;4.93;4.07;;;;;;;14.57;85.37;94992.81;5090839;28;20211;-79
2023/05/05 08:35:10;;;;;;;9.33;3.77;;;;;;;14.64;85.05;94996.09;5061303;28;20256;-78
2023/05/05 08:37:37;;;;;;;7.50;3.97;;;;;;;14.74;84.95;94988.44;5057094;28;20194;-78
2023/05/05 08:40:04;;;;;;;4.80;3.77;;;;;;;14.83;83.79;94982.81;5077404;28;20197;-77
2023/05/05 08:42:31;;;;;;;5.77;3.63;;;;;;;14.99;82.76;94982.03;5082946;28;20728;-76
2023/05/05 08:44:58;;;;;;;6.90;4.07;;;;;;;14.97;83.63;94979.66;5082090;28;20209;-76
2023/05/05 08:47:25;;;;;;;5.80;4.10;;;;;;;15.14;82.74;94987.50;5093183;28;20192;-77
2023/05/05 08:49:55;;;;;;;6.77;3.70;;;;;;;15.24;83.26;94985.03;5079702;28;20281;-77
2023/05/05 08:52:28;;;;;;;8.33;3.87;;;;;;;15.38;83.85;94983.72;5084179;28;20198;-77
2023/05/05 08:55:13;;;;;;;4.57;3.47;;;;;;;15.58;84.12;94991.09;5090876;28;20185;-77
2023/05/05 08:57:44;;;;;;;4.53;3.50;;;;;;;15.69;82.90;94985.78;5084619;28;20201;-77
2023/05/05 09:00:12;;;;;;;3.80;3.30;;;;;;;15.74;83.07;94985.03;5084105;28;20643;-77
2023/05/05 09:02:42;;;;;;;4.87;3.53;;;;;;;15.80;82.91;94984.88;5091393;28;20189;-77
2023/05/05 09:05:10;;;;;;;8.60;3.90;;;;;;;15.91;82.31;94991.03;5086903;28;20209;-76
2023/05/05 09:07:40;;;;;;;7.07;3.10;;;;;;;16.02;82.35;94986.69;5078283;28;20299;-77
2023/05/05 09:10:09;;;;;;;5.67;3.10;;;;;;;16.04;82.32;94995.94;5086927;28;20204;-78
2023/05/05 09:12:39;;;;;;;4.47;3.23;;;;;;;16.10;82.26;94991.56;5086217;28;20197;-77
2023/05/05 09:15:06;;;;;;;5.90;2.90;;;;;;;16.21;82.12;94982.75;5079845;28;20228;-77
2023/05/05 09:17:33;;;;;;;3.63;2.90;;;;;;;16.29;82.75;94979.72;5086453;28;20662;-77
2023/05/05 09:20:05;;;;;;;5.63;3.13;;;;;;;16.58;82.29;94989.00;5087081;28;20185;-77
2023/05/05 09:22:33;;;;;;;5.03;2.80;;;;;;;16.73;78.92;94989.16;5081054;28;20189;-76
2023/05/05 09:25:02;;;;;;;3.13;2.83;;;;;;;16.79;78.60;94975.03;5084201;28;20793;-76
2023/05/05 09:27:28;;;;;;;3.17;2.60;;;;;;;16.94;77.09;94977.78;5090469;28;20204;-78
2023/05/05 09:29:56;;;;;;;3.57;2.50;;;;;;;16.92;77.00;94963.31;5078050;28;20303;-76
2023/05/05 09:32:23;;;;;;;3.47;2.60;;;;;;;17.06;78.24;94979.44;5083842;28;20319;-76
2023/05/05 09:35:00;;;;;;;4.03;2.77;;;;;;;16.88;77.85;94983.25;5077688;28;20189;-77
2023/05/05 09:37:31;;;;;;;3.13;2.80;;;;;;;16.88;77.35;94984.03;5083209;28;20189;-77
2023/05/05 09:40:01;;;;;;;3.33;2.50;;;;;;;16.86;77.34;94980.06;5079988;28;20261;-76
2023/05/05 09:42:27;;;;;;;3.17;2.87;;;;;;;16.82;76.73;94979.78;5092830;28;20593;-78
2023/05/05 09:44:55;;;;;;;5.10;2.87;;;;;;;16.89;76.70;94977.75;5084490;28;20655;-77
2023/05/05 09:47:22;;;;;;;3.33;3.00;;;;;;;16.96;77.53;94983.59;5083802;28;20274;-76
2023/05/05 09:49:58;;;;;;;3.03;2.73;;;;;;;16.98;77.10;94978.88;5092771;28;20776;-76
2023/05/05 09:52:25;;;;;;;3.50;2.70;;;;;;;17.04;76.07;94979.72;5078375;28;20196;-76
2023/05/05 09:54:56;;;;;;;4.47;2.50;;;;;;;17.21;73.90;94974.34;5083436;28;20222;-76
2023/05/05 09:57:28;;;;;;;2.60;2.30;;;;;;;17.42;73.45;94976.88;5087364;28;20319;-76
2023/05/05 09:59:57;;;;;;;3.00;2.33;;;;;;;17.68;72.35;94982.34;5080967;28;20241;-76
2023/05/05 10:02:31;;;;;;;4.75;2.55;;;;;;;17.84;71.88;94960.31;5079503;28;20288;-76
2023/05/05 10:05:06;;;;;;;4.32;3.28;;;;;;;18.21;72.08;94968.16;5077725;28;20232;-76
2023/05/05 10:07:33;;;;;;;6.32;3.00;;;;;;;18.43;70.91;94966.91;5081850;28;20636;-76
2023/05/05 10:10:00;;;;;;;3.88;2.78;;;;;;;18.70;69.38;94970.16;5081680;28;20300;-77
2023/05/05 10:12:31;;;;;;;4.38;3.20;;;;;;;18.92;67.98;94966.50;5086798;28;20249;-77
2023/05/05 10:15:01;;;;;;;5.05;3.33;;;;;;;19.07;67.60;94972.59;5082176;28;20224;-76
2023/05/05 10:17:30;;;;;;;8.57;6.10;;;;;;;18.93;66.61;94966.25;5080568;28;20200;-76
2023/05/05 10:19:59;;;;;;;4.55;3.03;;;;;;;18.88;67.09;94965.44;5080849;28;20655;-76
2023/05/05 10:22:29;;;;;;;3.83;3.22;;;;;;;18.79;67.77;94951.22;5081148;28;20639;-75
2023/05/05 10:25:01;;;;;;;5.03;3.20;;;;;;;18.96;68.51;94955.19;5072225;28;20742;-76
2023/05/05 10:27:34;;;;;;;11.73;2.67;;;;;;;19.21;65.80;94957.06;5081980;28;20247;-76
2023/05/05 10:30:04;;;;;;;4.40;2.72;;;;;;;19.48;65.06;94957.59;5089879;28;20197;-77
2023/05/05 10:32:36;;;;;;;3.78;2.50;;;;;;;19.64;64.50;94963.63;5076225;28;20697;-76
2023/05/05 10:35:07;;;;;;;3.83;2.53;;;;;;;19.57;65.04;94955.19;5081569;28;20239;-77
2023/05/05 10:37:36;;;;;;;6.70;2.83;;;;;;;19.56;64.78;94957.06;5068904;28;20190;-76
2023/05/05 10:40:04;;;;;;;5.75;3.10;;;;;;;19.24;65.51;94954.69;5060958;28;20193;-76
2023/05/05 10:42:32;;;;;;;3.40;2.78;;;;;;;18.92;66.83;94950.72;5072972;28;20648;-76
2023/05/05 10:44:59;;;;;;;4.70;2.72;;;;;;;18.84;67.56;94945.97;5081027;28;20205;-78
2023/05/05 10:47:30;;;;;;;5.40;2.88;;;;;;;18.72;67.48;94945.41;5080234;28;20200;-76
2023/05/05 10:50:02;;;;;;;4.93;2.90;;;;;;;18.63;67.48;94950.41;5071705;28;20213;-77
2023/05/05 10:52:36;;;;;;;6.32;2.67;;;;;;;18.70;68.62;94948.28;5089073;28;20177;-77
2023/05/05 10:55:14;;;;;;;5.10;2.80;;;;;;;18.90;67.84;94947.56;5078501;28;20192;-78
2023/05/05 10:57:44;;;;;;;3.88;2.75;;;;;;;19.36;67.09;94949.16;5076926;28;20622;-77
2023/05/05 11:00:53;;;;;;;3.88;2.78;;;;;;;19.80;66.05;94952.78;5087266;28;20658;-77
2023/05/05 11:03:21;;;;;;;4.60;2.45;;;;;;;19.74;64.50;94959.13;5085497;28;20199;-81
2023/05/05 11:06:13;;;;;;;4.22;2.72;;;;;;;19.68;64.99;94954.91;5083661;28;20201;-78
2023/05/05 11:08:42;;;;;;;3.20;2.63;;;;;;;19.43;65.65;94949.69;5070952;28;20630;-78
2023/05/05 11:11:10;;;;;;;4.38;2.30;;;;;;;19.07;66.95;94956.00;5088283;28;20299;-78
2023/05/05 11:13:38;;;;;;;2.60;2.40;;;;;;;18.93;68.11;94944.41;5085408;28;20738;-77
2023/05/05 11:16:26;;;;;;;5.15;2.83;;;;;;;18.82;68.80;94940.94;5083282;28;20227;-78
2023/05/05 11:18:53;;;;;;;2.70;2.50;;;;;;;19.10;67.93;94944.94;5082320;28;20205;-78
2023/05/05 11:21:20;;;;;;;4.63;2.70;;;;;;;19.45;67.34;94949.44;5088682;28;20679;-79
2023/05/05 11:23:50;;;;;;;2.70;2.22;;;;;;;19.83;64.93;94945.41;5066535;28;20205;-78
2023/05/05 11:26:19;;;;;;;5.53;2.75;;;;;;;19.75;65.19;94936.19;5078742;28;20656;-78
2023/05/05 11:29:01;;;;;;;4.47;2.28;;;;;;;19.55;65.17;94925.69;5083614;28;20299;-77
2023/05/05 11:31:29;;;;;;;4.90;2.70;;;;;;;19.59;66.44;94932.81;5069630;28;20200;-77